Stena Suede — ZCEF5 — position and weather

sailwx.info

Track history (hours):
 
Tides and Currents Weather Stations Pressure Air Temp Water Temp Dewpoint Dewpoint Depression Visibility Wind Speed Wind Dir Waves Ship Positions

Stena Suede

Last reported at 2014-Dec-24 15:33 UTC. Time now 2015-Jan-31 22:44 UTC.
Position N 09°49' W 016°59'.
Warning: this ship's position is 38 days out of date.

Length 274 m; draft 9.2 m.

Type: Tanker. MMSI: 310622000.

Date/timePositionNaut miles runAvg speedWind from/ knotsBaromVisibWave heightAir tempDewpointWater temp
2014-Dec-24 15:33N 09°49' W 016°59'1312.7
2014-Dec-24 14:33N 09°59' W 017°07'1312.7
2014-Dec-24 13:33N 10°10' W 017°14'1312.5
2014-Dec-24 12:33N 10°23' W 017°17'1312.6
2014-Dec-24 11:31N 10°35' W 017°20'8 7.5
2014-Dec-24 10:31N 10°42' W 017°23'30 5.6
2014-Dec-24 05:07N 11°11' W 017°31'1012.9
2014-Dec-24 04:19N 11°21' W 017°34'1012.8
2014-Dec-24 03:33N 11°31' W 017°36'  
Track history (hours):
 
Tides and Currents Weather Stations Pressure Air Temp Water Temp Dewpoint Dewpoint Depression Visibility Wind Speed Wind Dir Waves Ship Positions

Stena Suede

Last reported at 2014-Dec-24 15:33 UTC. Time now 2015-Jan-31 22:44 UTC.
Position N 09°49' W 016°59'.
Warning: this ship's position is 38 days out of date.

Length 274 m; draft 9.2 m.

Type: Tanker. MMSI: 310622000.

Date/timePositionNaut miles runAvg speedWind from/ knotsBaromVisibWave heightAir tempDewpointWater temp
2014-Dec-24 15:33N 09°49' W 016°59'1312.7
2014-Dec-24 14:33N 09°59' W 017°07'1312.7
2014-Dec-24 13:33N 10°10' W 017°14'1312.5
2014-Dec-24 12:33N 10°23' W 017°17'1312.6
2014-Dec-24 11:31N 10°35' W 017°20'8 7.5
2014-Dec-24 10:31N 10°42' W 017°23'30 5.6
2014-Dec-24 05:07N 11°11' W 017°31'1012.9
2014-Dec-24 04:19N 11°21' W 017°34'1012.8
2014-Dec-24 03:33N 11°31' W 017°36'  

Dump ship's entire track history